Time;durP1;ratioP1;P1;durP2;ratioP2;P2;SDS_P1;SDS_P2;PMS_P1;PMS_P2;Temp;Humidity;BMP_temperature;BMP_pressure;BME280_temperature;BME280_humidity;BME280_pressure;Samples;Min_cycle;Max_cycle;Signal;HPM_P1;HPM_P2
2023/04/20 00:00:52;;;;;;;6.50;3.60;;;;;7.80;101537.00;;;;11067734;24;20260;-82
2023/04/20 00:05:55;;;;;;;12.83;3.23;;;;;7.70;101520.00;;;;9961256;29;20229;-82
2023/04/20 00:10:57;;;;;;;5.53;3.53;;;;;7.70;101528.00;;;;9957075;29;20212;-82
2023/04/20 00:15:59;;;;;;;6.93;3.70;;;;;7.60;101520.00;;;;9935090;29;20306;-82
2023/04/20 00:21:01;;;;;;;4.80;3.17;;;;;7.50;101515.00;;;;9953485;29;20206;-83
2023/04/20 00:26:04;;;;;;;3.33;3.03;;;;;7.40;101510.00;;;;9935857;29;20228;-82
2023/04/20 00:31:06;;;;;;;5.57;3.07;;;;;7.40;101508.00;;;;9965102;29;20678;-82
2023/04/20 00:36:08;;;;;;;8.20;3.13;;;;;7.30;101503.00;;;;9933451;29;20474;-82
2023/04/20 00:41:10;;;;;;;7.40;3.57;;;;;7.20;101498.00;;;;9904128;29;20560;-82
2023/04/20 00:46:12;;;;;;;5.53;3.57;;;;;7.20;101494.00;;;;9931517;29;20220;-82
2023/04/20 00:51:15;;;;;;;5.20;3.20;;;;;7.10;101499.00;;;;9931706;29;20276;-82
2023/04/20 00:56:18;;;;;;;9.60;3.30;;;;;7.00;101493.00;;;;9888385;29;20787;-82
2023/04/20 01:01:20;;;;;;;7.57;3.70;;;;;6.90;101493.00;;;;9912755;29;20724;-81
2023/04/20 01:06:22;;;;;;;6.43;3.30;;;;;6.80;101490.00;;;;9908905;29;20419;-82
2023/04/20 01:11:27;;;;;;;6.00;3.40;;;;;6.70;101478.00;;;;9917798;29;20211;-81
2023/04/20 01:16:30;;;;;;;5.03;3.23;;;;;6.60;101479.00;;;;9917298;29;20241;-82
2023/04/20 01:21:33;;;;;;;5.83;3.40;;;;;6.50;101470.00;;;;9904156;29;20214;-81
2023/04/20 01:26:35;;;;;;;4.17;2.60;;;;;6.40;101464.00;;;;9914535;29;20322;-82
2023/04/20 01:31:37;;;;;;;5.87;3.10;;;;;6.30;101460.00;;;;9937963;29;20222;-80
2023/04/20 01:36:38;;;;;;;6.70;3.70;;;;;6.30;101445.00;;;;9892573;29;20235;-82
2023/04/20 01:41:41;;;;;;;4.70;2.80;;;;;6.20;101445.00;;;;9901569;29;20218;-81
2023/04/20 01:46:43;;;;;;;3.30;2.57;;;;;6.10;101439.00;;;;9908241;29;20330;-82
2023/04/20 01:51:45;;;;;;;7.90;3.63;;;;;6.00;101439.00;;;;9884765;29;20272;-82
2023/04/20 01:56:47;;;;;;;5.40;3.70;;;;;5.80;101446.00;;;;9925866;29;20330;-82
2023/04/20 02:01:49;;;;;;;4.03;2.90;;;;;5.80;101434.00;;;;9944429;29;20215;-82
2023/04/20 02:06:51;;;;;;;6.87;2.60;;;;;5.80;101423.00;;;;9894269;29;20219;-82
2023/04/20 02:11:53;;;;;;;6.07;3.33;;;;;5.70;101423.00;;;;9903096;29;20896;-82
2023/04/20 02:16:55;;;;;;;5.87;3.70;;;;;5.70;101427.00;;;;9888086;29;20233;-82
2023/04/20 02:21:58;;;;;;;6.43;3.27;;;;;5.70;101428.00;;;;9917670;29;20293;-83
2023/04/20 02:27:00;;;;;;;6.70;3.37;;;;;5.60;101421.00;;;;9880053;29;20208;-82
2023/04/20 02:32:02;;;;;;;8.50;3.43;;;;;5.50;101416.00;;;;9917884;29;20337;-82
2023/04/20 02:37:04;;;;;;;6.37;3.53;;;;;5.40;101416.00;;;;9923067;29;20249;-83
2023/04/20 02:42:08;;;;;;;4.77;3.20;;;;;5.30;101401.00;;;;9906165;29;20216;-82
2023/04/20 02:47:11;;;;;;;4.00;2.87;;;;;5.20;101390.00;;;;9890197;29;20227;-82
2023/04/20 02:52:13;;;;;;;9.00;3.10;;;;;5.10;101391.00;;;;9888022;29;20242;-82
2023/04/20 02:57:16;;;;;;;4.80;2.73;;;;;4.90;101404.00;;;;9899562;29;20238;-82
2023/04/20 03:02:18;;;;;;;4.47;2.83;;;;;4.80;101393.00;;;;9890624;29;20272;-82
2023/04/20 03:07:21;;;;;;;4.53;2.87;;;;;4.80;101396.00;;;;9917117;29;20254;-82
2023/04/20 03:12:23;;;;;;;6.13;3.17;;;;;4.70;101382.00;;;;9885474;29;20210;-82
2023/04/20 03:17:42;;;;;;;4.00;2.60;;;;;4.70;101388.00;;;;9919021;29;20229;-82
2023/04/20 03:22:45;;;;;;;5.93;2.83;;;;;4.60;101375.00;;;;9966307;29;20214;-82
2023/04/20 03:27:48;;;;;;;4.27;2.57;;;;;4.50;101376.00;;;;9904472;29;20219;-82
2023/04/20 03:32:50;;;;;;;5.40;3.20;;;;;4.40;101363.00;;;;9927386;29;20243;-82
2023/04/20 03:37:52;;;;;;;3.60;2.90;;;;;4.50;101367.00;;;;9889385;29;20235;-82
2023/04/20 03:42:55;;;;;;;6.10;3.50;;;;;4.50;101360.00;;;;9914857;29;20218;-82
2023/04/20 03:47:57;;;;;;;5.90;2.77;;;;;4.40;101358.00;;;;9883169;29;20220;-82
2023/04/20 03:53:00;;;;;;;4.10;2.50;;;;;4.40;101341.00;;;;9926884;29;20211;-82
2023/04/20 03:58:06;;;;;;;5.20;3.37;;;;;4.20;101336.00;;;;9911413;29;20284;-82
2023/04/20 04:03:19;;;;;;;9.50;3.00;;;;;4.10;101347.00;;;;9900427;29;20225;-82
2023/04/20 04:08:21;;;;;;;6.27;2.87;;;;;4.10;101336.00;;;;9901298;29;20207;-82
2023/04/20 04:13:23;;;;;;;2.93;2.53;;;;;4.10;101330.00;;;;9896861;29;20222;-81
2023/04/20 04:18:31;;;;;;;3.13;2.60;;;;;4.30;101321.00;;;;9929861;29;20259;-81
2023/04/20 04:23:36;;;;;;;3.83;2.57;;;;;4.50;101310.00;;;;9903695;29;20221;-81
2023/04/20 04:28:48;;;;;;;4.87;2.70;;;;;4.70;101316.00;;;;9930044;29;20217;-81
2023/04/20 04:33:52;;;;;;;6.53;3.50;;;;;4.90;101317.00;;;;9904552;29;20214;-81
2023/04/20 04:39:17;;;;;;;6.83;3.17;;;;;5.00;101309.00;;;;9881875;29;20254;-81
2023/04/20 04:44:30;;;;;;;4.87;2.63;;;;;5.00;101306.00;;;;9900473;29;20214;-81
2023/04/20 04:49:34;;;;;;;5.57;2.70;;;;;5.10;101298.00;;;;9892446;29;20239;-81
2023/04/20 04:54:36;;;;;;;4.20;3.00;;;;;5.30;101298.00;;;;9885290;29;20468;-81
2023/04/20 04:59:38;;;;;;;2.97;2.57;;;;;5.50;101301.00;;;;9878848;29;20239;-82
2023/04/20 05:04:40;;;;;;;6.43;3.10;;;;;5.60;101296.00;;;;9877702;29;20280;-82
2023/04/20 05:09:43;;;;;;;6.93;3.10;;;;;5.60;101284.00;;;;9884151;29;20232;-81
2023/04/20 05:14:45;;;;;;;5.23;3.00;;;;;5.70;101280.00;;;;9898339;29;20203;-83
2023/04/20 05:19:46;;;;;;;6.53;3.37;;;;;5.80;101278.00;;;;9924154;29;20228;-82
2023/04/20 05:24:49;;;;;;;5.10;2.80;;;;;5.90;101265.00;;;;9883275;29;20210;-83
2023/04/20 05:29:51;;;;;;;5.67;2.90;;;;;6.10;101262.00;;;;9910597;29;20764;-83
2023/04/20 05:34:53;;;;;;;7.37;3.10;;;;;6.20;101252.00;;;;9937103;29;20250;-82
2023/04/20 05:39:55;;;;;;;6.50;3.27;;;;;6.30;101253.00;;;;9903996;29;20273;-83
2023/04/20 05:44:56;;;;;;;7.83;3.10;;;;;6.40;101255.00;;;;9907562;29;20210;-83
2023/04/20 05:49:58;;;;;;;4.27;3.23;;;;;6.50;101249.00;;;;9900124;29;20226;-82
2023/04/20 05:55:00;;;;;;;7.13;3.33;;;;;6.60;101262.00;;;;9901026;29;20226;-83
2023/04/20 06:00:03;;;;;;;7.70;3.60;;;;;6.70;101256.00;;;;9883239;29;20262;-82
2023/04/20 06:05:13;;;;;;;6.37;3.60;;;;;6.80;101254.00;;;;9922219;29;20211;-83
2023/04/20 06:10:15;;;;;;;3.80;3.40;;;;;7.00;101259.00;;;;9912939;29;20223;-83
2023/04/20 06:15:18;;;;;;;4.33;3.37;;;;;7.30;101251.00;;;;9896741;29;20234;-81
2023/04/20 06:20:20;;;;;;;3.70;3.07;;;;;7.40;101254.00;;;;9902279;29;20307;-82
2023/04/20 06:25:22;;;;;;;5.20;3.30;;;;;7.40;101256.00;;;;9919166;29;20215;-81
2023/04/20 06:30:24;;;;;;;5.07;3.60;;;;;7.60;101258.00;;;;9905514;29;20215;-82
2023/04/20 06:35:26;;;;;;;6.23;4.07;;;;;7.70;101261.00;;;;9904695;29;20272;-82
2023/04/20 06:40:28;;;;;;;9.07;4.50;;;;;7.70;101253.00;;;;9934498;29;20235;-82
2023/04/20 06:45:30;;;;;;;7.90;4.93;;;;;7.70;101256.00;;;;9922322;29;20754;-82
2023/04/20 06:50:35;;;;;;;8.80;4.90;;;;;7.70;101247.00;;;;9914274;29;20239;-81
2023/04/20 06:55:36;;;;;;;6.73;4.27;;;;;7.60;101242.00;;;;9903641;29;20218;-82
2023/04/20 07:00:38;;;;;;;6.90;4.30;;;;;7.60;101241.00;;;;9901048;29;20227;-81
2023/04/20 07:05:40;;;;;;;6.53;4.90;;;;;7.60;101245.00;;;;9919303;29;20249;-82
2023/04/20 07:10:42;;;;;;;11.40;5.10;;;;;7.60;101242.00;;;;9920541;29;20215;-81
2023/04/20 07:15:45;;;;;;;11.63;5.73;;;;;7.70;101243.00;;;;9915591;29;20282;-80
2023/04/20 07:20:47;;;;;;;9.63;5.10;;;;;7.60;101239.00;;;;9907906;29;20249;-81
2023/04/20 07:25:49;;;;;;;7.13;4.63;;;;;7.60;101239.00;;;;9895101;29;20226;-80
2023/04/20 07:30:51;;;;;;;7.37;5.43;;;;;7.80;101247.00;;;;9888018;29;20575;-81
2023/04/20 07:35:53;;;;;;;8.53;4.87;;;;;8.00;101239.00;;;;9911539;29;20218;-82
2023/04/20 07:40:55;;;;;;;9.40;5.50;;;;;8.20;101229.00;;;;9887361;29;20214;-82
2023/04/20 07:45:57;;;;;;;9.40;5.60;;;;;8.30;101222.00;;;;9905322;29;20543;-82
2023/04/20 07:51:00;;;;;;;8.20;4.90;;;;;8.40;101215.00;;;;9916306;29;20931;-81
2023/04/20 07:56:02;;;;;;;10.30;5.17;;;;;8.40;101213.00;;;;9882638;29;20215;-82
2023/04/20 08:01:04;;;;;;;8.30;5.67;;;;;8.60;101214.00;;;;9911095;29;20223;-82
2023/04/20 08:06:06;;;;;;;9.93;6.00;;;;;8.90;101214.00;;;;9890641;29;20508;-82
2023/04/20 08:11:08;;;;;;;9.33;5.03;;;;;9.10;101210.00;;;;9886815;29;20219;-81
2023/04/20 08:16:10;;;;;;;5.47;4.87;;;;;9.40;101208.00;;;;9909639;29;20229;-81
2023/04/20 08:21:12;;;;;;;7.10;4.93;;;;;9.70;101212.00;;;;9927094;29;20236;-81
2023/04/20 08:26:16;;;;;;;7.30;4.73;;;;;9.90;101207.00;;;;9925845;29;20422;-82
2023/04/20 08:31:18;;;;;;;6.23;4.77;;;;;10.30;101200.00;;;;9900367;29;20266;-81
2023/04/20 08:36:20;;;;;;;7.30;5.03;;;;;10.40;101198.00;;;;9880070;29;20274;-80
2023/04/20 08:41:23;;;;;;;10.00;5.07;;;;;10.30;101183.00;;;;9949418;29;20231;-82
2023/04/20 08:46:25;;;;;;;6.70;4.50;;;;;10.30;101183.00;;;;9906897;29;20219;-82
2023/04/20 08:51:28;;;;;;;7.57;5.43;;;;;10.40;101185.00;;;;9898637;29;20361;-82
2023/04/20 08:56:38;;;;;;;7.90;4.70;;;;;10.50;101183.00;;;;9875316;29;20235;-81
2023/04/20 09:01:41;;;;;;;9.97;5.40;;;;;10.60;101173.00;;;;9907134;29;20219;-81
2023/04/20 09:06:45;;;;;;;7.03;5.00;;;;;10.40;101175.00;;;;9885348;29;20231;-83
2023/04/20 09:11:58;;;;;;;7.17;5.33;;;;;11.10;101160.00;;;;9898848;29;20896;-82
2023/04/20 09:17:00;;;;;;;6.57;5.33;;;;;12.70;101160.00;;;;9901853;29;20234;-83
2023/04/20 09:22:04;;;;;;;8.00;5.67;;;;;13.30;101153.00;;;;9905801;29;20215;-83
2023/04/20 09:27:21;;;;;;;10.03;5.13;;;;;13.50;101148.00;;;;9908025;29;20225;-83
2023/04/20 09:32:25;;;;;;;6.60;4.57;;;;;13.20;101141.00;;;;9891418;29;20233;-83
2023/04/20 09:37:28;;;;;;;14.03;5.37;;;;;12.20;101138.00;;;;9923177;29;20228;-83
2023/04/20 09:42:31;;;;;;;14.60;5.93;;;;;11.60;101129.00;;;;9939162;29;20707;-83
2023/04/20 09:47:35;;;;;;;7.63;4.93;;;;;12.10;101135.00;;;;9904690;29;20219;-83
2023/04/20 09:52:38;;;;;;;8.73;5.13;;;;;12.20;101137.00;;;;9922040;29;20235;-83
2023/04/20 09:57:41;;;;;;;8.63;4.90;;;;;12.40;101122.00;;;;9924215;29;20231;-82
2023/04/20 10:02:45;;;;;;;7.20;4.73;;;;;12.90;101101.00;;;;9913028;29;20219;-83
2023/04/20 10:07:58;;;;;;;7.93;5.03;;;;;12.50;101105.00;;;;9919806;29;20215;-83
2023/04/20 10:13:01;;;;;;;10.53;5.13;;;;;12.60;101085.00;;;;9900443;29;20218;-83
2023/04/20 10:18:22;;;;;;;4.57;4.13;;;;;12.60;101092.00;;;;9873893;29;20288;-83
2023/04/20 10:23:24;;;;;;;10.80;5.57;;;;;11.80;101093.00;;;;9939450;29;20222;-83
2023/04/20 10:28:40;;;;;;;10.53;4.47;;;;;11.30;101099.00;;;;9947014;29;20207;-83
2023/04/20 10:34:04;;;;;;;9.93;4.80;;;;;10.90;101085.00;;;;9916201;29;20215;-83
2023/04/20 10:39:18;;;;;;;9.30;5.33;;;;;10.70;101082.00;;;;9872777;29;20226;-83
2023/04/20 10:44:21;;;;;;;5.90;4.33;;;;;11.00;101078.00;;;;9920390;29;20223;-83
2023/04/20 10:49:28;;;;;;;9.03;5.37;;;;;10.90;101072.00;;;;9901332;29;20239;-83
2023/04/20 10:54:37;;;;;;;10.67;4.90;;;;;10.70;101078.00;;;;9919809;29;20279;-82
2023/04/20 10:59:40;;;;;;;5.97;5.13;;;;;10.80;101072.00;;;;9905664;29;20254;-82
2023/04/20 11:04:43;;;;;;;14.67;6.87;;;;;11.40;101071.00;;;;9873063;29;20223;-84
2023/04/20 11:09:52;;;;;;;10.97;6.17;;;;;11.50;101068.00;;;;9940466;29;20281;-83
2023/04/20 11:15:01;;;;;;;11.53;5.70;;;;;11.40;101067.00;;;;9883057;29;20227;-83
2023/04/20 11:20:12;;;;;;;7.10;4.57;;;;;11.40;101054.00;;;;9876216;29;20239;-84
2023/04/20 11:25:14;;;;;;;4.67;3.97;;;;;11.50;101049.00;;;;9885606;29;20254;-83
2023/04/20 11:30:16;;;;;;;5.40;4.60;;;;;12.10;101042.00;;;;9917785;29;20311;-82
2023/04/20 11:35:19;;;;;;;6.00;4.40;;;;;13.90;101019.00;;;;9875512;29;20691;-83
2023/04/20 11:40:22;;;;;;;8.63;4.90;;;;;16.30;101023.00;;;;9847502;29;20567;-83
2023/04/20 11:45:24;;;;;;;8.57;4.67;;;;;17.40;101022.00;;;;9865683;29;20222;-83
2023/04/20 11:50:26;;;;;;;5.23;4.73;;;;;17.10;101015.00;;;;9898683;29;20897;-82
2023/04/20 11:55:28;;;;;;;8.00;5.70;;;;;16.40;101007.00;;;;9846989;29;20917;-84
2023/04/20 12:00:30;;;;;;;5.83;5.23;;;;;15.10;101003.00;;;;9910958;29;20766;-85
2023/04/20 12:05:33;;;;;;;7.70;5.13;;;;;15.10;101007.00;;;;9934082;29;20219;-83
2023/04/20 12:10:35;;;;;;;5.17;4.43;;;;;15.50;101005.00;;;;9875777;29;20212;-84
2023/04/20 12:15:37;;;;;;;6.73;4.80;;;;;15.00;101000.00;;;;9896111;29;20211;-84
2023/04/20 12:20:40;;;;;;;6.27;4.93;;;;;13.70;101005.00;;;;9882082;29;20863;-84
2023/04/20 12:25:42;;;;;;;6.80;4.80;;;;;12.60;101000.00;;;;9848463;29;20726;-84
2023/04/20 12:30:44;;;;;;;6.53;5.37;;;;;13.30;100981.00;;;;9871282;29;20301;-84
2023/04/20 12:35:46;;;;;;;8.23;5.10;;;;;13.90;100990.00;;;;9885575;29;20235;-84
2023/04/20 12:40:48;;;;;;;5.90;5.30;;;;;14.20;100985.00;;;;9923835;29;20245;-82
2023/04/20 12:45:50;;;;;;;6.07;4.80;;;;;14.30;100995.00;;;;9923708;29;20468;-83
2023/04/20 12:50:53;;;;;;;5.77;5.23;;;;;14.00;100984.00;;;;9921641;29;20260;-83
2023/04/20 12:55:55;;;;;;;6.00;5.40;;;;;13.40;100986.00;;;;9902808;29;20323;-83
2023/04/20 13:01:02;;;;;;;12.90;6.03;;;;;13.10;100998.00;;;;9886009;29;20699;-82
2023/04/20 13:06:05;;;;;;;7.83;6.13;;;;;13.40;100997.00;;;;9925228;29;20284;-83
2023/04/20 13:11:10;;;;;;;8.60;6.00;;;;;12.80;101013.00;;;;9889916;29;20663;-83
2023/04/20 13:16:13;;;;;;;8.57;6.37;;;;;11.50;101011.00;;;;9908606;29;20321;-83
2023/04/20 13:21:15;;;;;;;7.33;6.60;;;;;11.20;101014.00;;;;9916803;29;20231;-82
2023/04/20 13:26:17;;;;;;;6.83;6.13;;;;;10.90;101020.00;;;;9934678;29;20671;-82
2023/04/20 13:31:20;;;;;;;8.70;6.97;;;;;10.30;101012.00;;;;9901396;29;20230;-81
2023/04/20 13:36:23;;;;;;;9.27;7.40;;;;;9.70;101021.00;;;;9916575;29;20234;-81
2023/04/20 13:41:25;;;;;;;9.17;7.50;;;;;9.90;101004.00;;;;9905455;29;20252;-81
2023/04/20 13:46:29;;;;;;;10.97;8.40;;;;;10.50;100999.00;;;;9911493;29;20256;-81
2023/04/20 13:51:32;;;;;;;13.83;9.47;;;;;11.50;100995.00;;;;9916962;29;20227;-81
2023/04/20 13:56:35;;;;;;;9.57;8.37;;;;;14.30;100984.00;;;;9908732;29;20287;-82
2023/04/20 14:01:38;;;;;;;9.70;8.60;;;;;17.20;100962.00;;;;9904296;29;20243;-83
2023/04/20 14:06:40;;;;;;;9.03;8.13;;;;;20.40;100943.00;;;;9901687;29;20227;-83
2023/04/20 14:11:43;;;;;;;8.20;7.13;;;;;22.30;100942.00;;;;9923567;29;20273;-84
2023/04/20 14:16:47;;;;;;;7.00;6.30;;;;;22.40;100942.00;;;;9896204;29;20231;-85
2023/04/20 14:21:49;;;;;;;7.17;6.47;;;;;20.30;100969.00;;;;9927176;29;20302;-82
2023/04/20 14:26:51;;;;;;;8.97;6.43;;;;;15.50;100956.00;;;;9934773;29;20238;-82
2023/04/20 14:31:53;;;;;;;8.20;6.93;;;;;12.70;100958.00;;;;9905280;29;20262;-85
2023/04/20 14:36:56;;;;;;;7.87;7.07;;;;;12.00;100949.00;;;;9933678;29;20231;-83
2023/04/20 14:41:58;;;;;;;9.13;6.03;;;;;12.00;100950.00;;;;9918961;29;20863;-83
2023/04/20 14:47:01;;;;;;;6.53;5.70;;;;;11.50;100941.00;;;;9928243;29;20226;-83
2023/04/20 14:52:04;;;;;;;7.87;7.00;;;;;13.40;100927.00;;;;9917195;29;20234;-83
2023/04/20 14:57:06;;;;;;;6.93;6.23;;;;;20.10;100899.00;;;;9919173;29;20235;-81
2023/04/20 15:02:07;;;;;;;3.73;3.20;;;;;19.60;100901.00;;;;9936207;29;20733;-83
2023/04/20 15:07:10;;;;;;;3.77;2.40;;;;;15.20;100911.00;;;;9865434;29;20223;-83
2023/04/20 15:12:12;;;;;;;2.73;1.90;;;;;16.10;100897.00;;;;9902081;29;20303;-83
2023/04/20 15:17:14;;;;;;;2.23;2.03;;;;;14.70;100900.00;;;;9884090;29;20231;-83
2023/04/20 15:22:17;;;;;;;2.43;2.23;;;;;14.20;100883.00;;;;9898105;29;20289;-84
2023/04/20 15:27:19;;;;;;;2.67;2.47;;;;;14.30;100882.00;;;;9883050;29;20222;-83
2023/04/20 15:32:22;;;;;;;3.30;3.10;;;;;14.50;100890.00;;;;9910938;29;20228;-81
2023/04/20 15:37:24;;;;;;;3.67;3.10;;;;;13.20;100889.00;;;;9892957;29;21820;-83
2023/04/20 15:42:26;;;;;;;3.80;3.50;;;;;12.40;100897.00;;;;9895114;29;20602;-84
2023/04/20 15:47:28;;;;;;;3.67;3.37;;;;;11.60;100903.00;;;;9908361;29;20711;-83
2023/04/20 15:52:31;;;;;;;5.13;3.83;;;;;11.10;100901.00;;;;9890426;29;20263;-83
2023/04/20 15:57:33;;;;;;;3.80;3.50;;;;;11.00;100898.00;;;;9906727;29;20231;-83
2023/04/20 16:02:35;;;;;;;3.57;3.27;;;;;10.80;100919.00;;;;9882206;29;20243;-84
2023/04/20 16:07:37;;;;;;;3.17;2.87;;;;;10.70;100913.00;;;;9889529;29;20261;-83
2023/04/20 16:12:39;;;;;;;3.10;2.80;;;;;10.40;100915.00;;;;9901667;29;20224;-83
2023/04/20 16:17:43;;;;;;;3.47;3.17;;;;;10.20;100913.00;;;;9912503;29;20387;-84
2023/04/20 16:22:45;;;;;;;3.60;3.30;;;;;10.40;100908.00;;;;9896699;29;20285;-83
2023/04/20 16:27:49;;;;;;;3.47;3.17;;;;;10.60;100907.00;;;;9893659;29;20246;-84
2023/04/20 16:32:52;;;;;;;4.10;3.80;;;;;10.70;100909.00;;;;9881293;29;20352;-84
2023/04/20 16:37:54;;;;;;;5.20;4.50;;;;;10.70;100912.00;;;;9902240;29;20280;-84
2023/04/20 16:42:57;;;;;;;4.50;4.10;;;;;10.70;100915.00;;;;9896086;29;20262;-83
2023/04/20 16:47:59;;;;;;;4.87;4.47;;;;;10.80;100913.00;;;;9883623;29;20230;-84
2023/04/20 16:53:02;;;;;;;4.97;4.57;;;;;10.80;100909.00;;;;9894574;29;20235;-84
2023/04/20 16:58:04;;;;;;;4.83;4.43;;;;;10.90;100904.00;;;;9898053;29;20230;-84
2023/04/20 17:03:09;;;;;;;5.57;5.07;;;;;10.80;100902.00;;;;9894618;29;20238;-84
2023/04/20 17:08:11;;;;;;;4.87;4.30;;;;;10.90;100895.00;;;;9915473;29;20236;-83
2023/04/20 17:13:14;;;;;;;5.17;4.70;;;;;11.20;100906.00;;;;9887339;29;20234;-84
2023/04/20 17:18:16;;;;;;;5.97;5.10;;;;;11.60;100908.00;;;;9882241;29;21434;-83
2023/04/20 17:23:18;;;;;;;6.77;6.13;;;;;12.00;100898.00;;;;9899711;29;20825;-84
2023/04/20 17:28:20;;;;;;;7.47;5.73;;;;;12.20;100904.00;;;;9893316;29;20237;-84
2023/04/20 17:33:22;;;;;;;6.57;5.90;;;;;12.00;100904.00;;;;9878216;29;20234;-84
2023/04/20 17:38:24;;;;;;;6.33;5.73;;;;;11.50;100907.00;;;;9892414;29;20243;-83
2023/04/20 17:43:26;;;;;;;6.30;5.70;;;;;11.50;100911.00;;;;9880991;29;20234;-84
2023/04/20 17:48:29;;;;;;;6.73;5.43;;;;;11.60;100902.00;;;;9864909;29;20234;-83
2023/04/20 17:53:31;;;;;;;8.47;6.00;;;;;11.50;100912.00;;;;9894447;29;20242;-84
2023/04/20 17:58:33;;;;;;;5.70;5.17;;;;;11.40;100917.00;;;;9872624;29;20234;-84
2023/04/20 18:03:35;;;;;;;7.17;5.63;;;;;11.20;100915.00;;;;9877055;29;20319;-84
2023/04/20 18:08:37;;;;;;;8.07;5.37;;;;;10.90;100914.00;;;;9894464;29;20230;-84
2023/04/20 18:13:39;;;;;;;5.90;5.17;;;;;10.70;100920.00;;;;9887793;29;20282;-83
2023/04/20 18:18:41;;;;;;;6.50;5.90;;;;;10.50;100920.00;;;;9898019;29;20299;-83
2023/04/20 18:23:43;;;;;;;6.77;6.13;;;;;10.30;100919.00;;;;9890922;29;20759;-84
2023/04/20 18:28:45;;;;;;;7.90;6.20;;;;;10.10;100924.00;;;;9878686;29;20695;-84
2023/04/20 18:33:48;;;;;;;8.67;5.53;;;;;9.90;100935.00;;;;9888267;29;20283;-84
2023/04/20 18:38:50;;;;;;;6.17;5.27;;;;;9.90;100930.00;;;;9892726;29;20338;-84
2023/04/20 18:43:53;;;;;;;11.30;5.77;;;;;9.70;100929.00;;;;9884880;29;20235;-84
2023/04/20 18:48:55;;;;;;;6.37;5.20;;;;;9.50;100935.00;;;;9889085;29;20228;-83
2023/04/20 18:53:57;;;;;;;9.47;5.17;;;;;9.40;100934.00;;;;9875212;29;20280;-84
2023/04/20 18:59:00;;;;;;;6.27;5.00;;;;;9.20;100935.00;;;;9870222;29;20239;-84
2023/04/20 19:04:02;;;;;;;5.90;4.80;;;;;9.10;100942.00;;;;9897296;29;20357;-83
2023/04/20 19:09:04;;;;;;;8.50;5.00;;;;;9.00;100940.00;;;;9880274;29;20223;-84
2023/04/20 19:14:11;;;;;;;6.60;6.00;;;;;8.80;100948.00;;;;9868911;29;20265;-84
2023/04/20 19:19:15;;;;;;;7.13;6.30;;;;;8.70;100931.00;;;;9865397;29;20239;-83
2023/04/20 19:24:17;;;;;;;6.60;5.23;;;;;8.60;100934.00;;;;9858868;29;20235;-84
2023/04/20 19:29:20;;;;;;;8.50;6.03;;;;;8.40;100938.00;;;;9874410;29;20239;-84
2023/04/20 19:34:23;;;;;;;6.37;5.50;;;;;8.30;100941.00;;;;9878225;29;20240;-84
2023/04/20 19:39:27;;;;;;;8.87;5.63;;;;;8.10;100930.00;;;;9889400;29;20310;-83
2023/04/20 19:44:29;;;;;;;6.93;5.90;;;;;7.90;100931.00;;;;9864155;29;20239;-84
2023/04/20 19:49:32;;;;;;;10.63;5.77;;;;;7.70;100929.00;;;;9877474;29;20294;-84
2023/04/20 19:54:34;;;;;;;9.17;7.73;;;;;7.70;100921.00;;;;9887517;29;20242;-83
2023/04/20 19:59:37;;;;;;;8.60;7.80;;;;;7.60;100920.00;;;;9850040;29;20235;-84
2023/04/20 20:04:40;;;;;;;13.33;6.87;;;;;7.50;100915.00;;;;9878767;29;20762;-84
2023/04/20 20:09:43;;;;;;;8.67;6.60;;;;;7.40;100917.00;;;;9877326;29;20313;-84
2023/04/20 20:14:45;;;;;;;7.90;6.80;;;;;7.30;100920.00;;;;9882982;29;20277;-83
2023/04/20 20:19:48;;;;;;;8.90;6.50;;;;;7.20;100915.00;;;;9871573;29;20270;-84
2023/04/20 20:24:52;;;;;;;8.50;6.97;;;;;7.10;100901.00;;;;9867328;29;20258;-83
2023/04/20 20:29:55;;;;;;;8.90;6.37;;;;;7.00;100888.00;;;;9872306;29;20220;-84
2023/04/20 20:34:57;;;;;;;8.37;6.57;;;;;6.90;100891.00;;;;9895105;29;20691;-84
2023/04/20 20:40:06;;;;;;;8.50;7.47;;;;;6.90;100901.00;;;;9854287;29;20242;-83
2023/04/20 20:45:11;;;;;;;9.80;8.17;;;;;6.80;100906.00;;;;9852303;30;20250;-82
2023/04/20 20:50:14;;;;;;;10.93;8.60;;;;;6.70;100914.00;;;;9847407;29;20309;-84
2023/04/20 20:55:17;;;;;;;9.07;7.40;;;;;6.70;100914.00;;;;9884496;30;20234;-83
2023/04/20 21:00:19;;;;;;;13.17;8.90;;;;;6.60;100911.00;;;;9858817;30;20280;-83
2023/04/20 21:05:22;;;;;;;13.90;10.17;;;;;6.50;100914.00;;;;9876713;29;20243;-83
2023/04/20 21:10:25;;;;;;;14.47;10.07;;;;;6.40;100924.00;;;;9887130;29;20297;-83
2023/04/20 21:15:28;;;;;;;13.47;9.90;;;;;6.30;100925.00;;;;9871039;29;20318;-83
2023/04/20 21:20:30;;;;;;;13.37;10.50;;;;;6.30;100921.00;;;;9879263;29;20240;-84
2023/04/20 21:25:32;;;;;;;14.00;11.00;;;;;6.10;100913.00;;;;9897981;30;20340;-84
2023/04/20 21:30:34;;;;;;;15.57;11.77;;;;;6.00;100909.00;;;;9890471;29;20257;-84
2023/04/20 21:35:37;;;;;;;13.00;10.63;;;;;5.90;100912.00;;;;9874446;29;20227;-83
2023/04/20 21:40:39;;;;;;;14.70;11.30;;;;;5.80;100914.00;;;;9860237;30;20240;-84
2023/04/20 21:45:41;;;;;;;16.77;11.40;;;;;5.60;100918.00;;;;9857162;30;20277;-84
2023/04/20 21:50:43;;;;;;;15.60;11.63;;;;;5.60;100912.00;;;;9892752;29;20584;-82
2023/04/20 21:55:45;;;;;;;17.80;12.13;;;;;5.50;100920.00;;;;9897399;29;20204;-84
2023/04/20 22:00:49;;;;;;;17.17;12.03;;;;;5.50;100922.00;;;;9862397;29;20228;-84
2023/04/20 22:05:52;;;;;;;14.10;11.80;;;;;5.40;100919.00;;;;9866029;30;20220;-84
2023/04/20 22:10:54;;;;;;;16.30;12.40;;;;;5.30;100917.00;;;;9866950;29;20844;-84
2023/04/20 22:15:56;;;;;;;14.50;12.10;;;;;5.30;100915.00;;;;9864338;29;20215;-85
2023/04/20 22:20:58;;;;;;;15.17;11.60;;;;;5.20;100913.00;;;;9887803;29;20239;-83
2023/04/20 22:26:00;;;;;;;15.23;11.60;;;;;5.20;100911.00;;;;9903603;29;20302;-84
2023/04/20 22:31:02;;;;;;;14.33;11.80;;;;;5.40;100908.00;;;;9903148;29;20894;-84
2023/04/20 22:36:06;;;;;;;15.33;12.43;;;;;5.50;100904.00;;;;9880605;29;20207;-84
2023/04/20 22:41:08;;;;;;;15.13;12.30;;;;;5.60;100902.00;;;;9874559;29;20239;-84
2023/04/20 22:46:10;;;;;;;19.60;12.40;;;;;5.50;100906.00;;;;9903088;29;20286;-84
2023/04/20 22:51:16;;;;;;;14.60;11.80;;;;;5.40;100904.00;;;;9901947;29;20320;-83
2023/04/20 22:56:18;;;;;;;15.47;11.80;;;;;5.20;100899.00;;;;9870021;29;20249;-84
2023/04/20 23:01:20;;;;;;;14.13;11.10;;;;;5.20;100888.00;;;;9901376;29;20235;-83
2023/04/20 23:06:23;;;;;;;16.10;12.10;;;;;5.10;100885.00;;;;9885205;29;20705;-84
2023/04/20 23:11:27;;;;;;;15.93;11.30;;;;;5.20;100885.00;;;;9884128;29;20216;-84
2023/04/20 23:16:29;;;;;;;16.03;11.83;;;;;5.20;100873.00;;;;9900743;29;20227;-84
2023/04/20 23:21:31;;;;;;;16.70;11.63;;;;;5.40;100865.00;;;;9868485;29;20250;-83
2023/04/20 23:26:34;;;;;;;13.73;11.20;;;;;5.60;100860.00;;;;9882517;29;20220;-84
2023/04/20 23:31:36;;;;;;;14.97;11.73;;;;;5.70;100851.00;;;;9869292;29;20216;-84
2023/04/20 23:36:38;;;;;;;14.80;12.27;;;;;6.00;100839.00;;;;9865725;29;20219;-84
2023/04/20 23:41:40;;;;;;;15.13;11.80;;;;;6.10;100830.00;;;;9899255;29;20292;-83
2023/04/20 23:46:42;;;;;;;11.97;10.30;;;;;6.20;100828.00;;;;9873049;29;20208;-83
2023/04/20 23:51:44;;;;;;;16.83;12.63;;;;;6.20;100822.00;;;;9869621;29;20289;-84
2023/04/20 23:56:46;;;;;;;15.20;11.23;;;;;6.20;100822.00;;;;9879715;29;20211;-83
